Time;durP1;ratioP1;P1;durP2;ratioP2;P2;SDS_P1;SDS_P2;PMS_P1;PMS_P2;Temp;Humidity;BMP_temperature;BMP_pressure;BME280_temperature;BME280_humidity;BME280_pressure;Samples;Min_cycle;Max_cycle;Signal;HPM_P1;HPM_P2
2024/01/04 00:00:42;;;;;;;1.33;0.85;;;16.60;53.50;;;;;;6114205;23;20150;-81
2024/01/04 00:03:09;;;;;;;1.40;0.90;;;16.60;53.50;;;;;;6215401;23;20185;-81
2024/01/04 00:05:35;;;;;;;2.88;0.88;;;16.60;53.70;;;;;;6215584;23;20130;-82
2024/01/04 00:08:01;;;;;;;2.15;1.00;;;16.50;53.60;;;;;;6190018;23;20237;-81
2024/01/04 00:10:27;;;;;;;2.90;0.70;;;16.60;53.80;;;;;;6182848;23;20225;-82
2024/01/04 00:12:53;;;;;;;1.08;0.70;;;16.60;53.50;;;;;;6184473;23;20238;-82
2024/01/04 00:15:19;;;;;;;1.00;0.70;;;16.60;53.50;;;;;;6184304;23;20131;-82
2024/01/04 00:17:44;;;;;;;1.58;0.60;;;16.70;53.40;;;;;;6183410;23;20166;-81
2024/01/04 00:20:10;;;;;;;1.63;0.88;;;16.60;53.30;;;;;;6184242;23;20139;-81
2024/01/04 00:22:37;;;;;;;2.97;0.70;;;16.60;53.40;;;;;;6184726;23;20533;-80
2024/01/04 00:25:04;;;;;;;1.05;0.73;;;16.60;53.40;;;;;;6183194;23;20162;-82
2024/01/04 00:29:55;;;;;;;1.63;0.68;;;16.60;53.40;;;;;;6214996;23;20570;-82
2024/01/04 00:32:21;;;;;;;1.33;0.63;;;16.60;53.50;;;;;;6189400;23;20177;-82
2024/01/04 00:34:46;;;;;;;1.70;0.75;;;16.60;53.70;;;;;;6217125;23;20135;-81
2024/01/04 00:37:12;;;;;;;1.38;1.00;;;16.60;53.60;;;;;;6216334;23;20134;-81
2024/01/04 00:39:38;;;;;;;1.17;0.65;;;16.60;53.70;;;;;;6217219;23;20523;-82
2024/01/04 00:42:04;;;;;;;0.93;0.63;;;16.60;53.60;;;;;;6190987;23;20264;-80
2024/01/04 00:44:30;;;;;;;1.23;0.60;;;16.60;53.80;;;;;;6217299;23;20131;-80
2024/01/04 00:46:55;;;;;;;1.95;0.80;;;16.60;53.40;;;;;;6189354;23;20542;-82
2024/01/04 00:49:21;;;;;;;1.90;0.80;;;16.60;53.70;;;;;;6215635;23;20210;-81
2024/01/04 00:51:47;;;;;;;2.42;0.80;;;16.50;53.70;;;;;;6215628;23;20134;-81
2024/01/04 00:54:13;;;;;;;1.33;0.70;;;16.50;53.60;;;;;;6215389;23;20447;-83
2024/01/04 00:56:39;;;;;;;1.73;0.70;;;16.50;53.80;;;;;;6163996;23;20229;-81
2024/01/04 00:59:05;;;;;;;2.25;0.80;;;16.50;53.70;;;;;;6190269;23;20170;-81
2024/01/04 01:01:33;;;;;;;1.52;0.73;;;16.50;53.60;;;;;;6190241;23;20179;-82
2024/01/04 01:04:01;;;;;;;1.30;0.73;;;16.50;53.80;;;;;;6114940;23;20644;-81
2024/01/04 01:06:28;;;;;;;0.93;0.60;;;16.60;53.50;;;;;;6214986;23;20145;-81
2024/01/04 01:08:54;;;;;;;1.90;0.90;;;16.50;53.70;;;;;;6188855;23;20150;-81
2024/01/04 01:11:20;;;;;;;2.15;0.85;;;16.50;53.50;;;;;;6189199;23;20188;-82
2024/01/04 01:13:46;;;;;;;1.00;0.60;;;16.60;53.70;;;;;;6215271;23;20135;-81
2024/01/04 01:16:13;;;;;;;1.92;0.80;;;16.50;53.50;;;;;;6215111;23;20173;-82
2024/01/04 01:18:39;;;;;;;1.90;0.75;;;16.50;53.70;;;;;;6188267;23;20134;-82
2024/01/04 01:21:05;;;;;;;1.77;0.70;;;16.50;53.60;;;;;;6189115;23;20142;-82
2024/01/04 01:23:31;;;;;;;1.50;0.80;;;16.50;53.70;;;;;;6189773;23;20170;-83
2024/01/04 01:25:57;;;;;;;0.98;0.80;;;16.50;53.70;;;;;;6164002;23;20508;-82
2024/01/04 01:28:22;;;;;;;1.65;0.77;;;16.50;53.60;;;;;;6216352;23;20617;-81
2024/01/04 01:30:48;;;;;;;0.90;0.70;;;16.50;53.70;;;;;;6216469;23;20130;-81
2024/01/04 01:33:14;;;;;;;2.97;0.93;;;16.50;53.40;;;;;;6216164;23;20192;-80
2024/01/04 01:35:39;;;;;;;3.05;0.63;;;16.50;53.70;;;;;;6184734;23;20239;-81
2024/01/04 01:38:07;;;;;;;1.10;0.68;;;16.50;53.60;;;;;;6186839;23;20147;-81
2024/01/04 01:40:33;;;;;;;1.75;0.47;;;16.50;53.50;;;;;;6160117;23;20166;-82
2024/01/04 01:42:59;;;;;;;1.50;0.82;;;16.50;53.60;;;;;;6186657;23;20166;-82
2024/01/04 01:45:25;;;;;;;1.75;0.70;;;16.50;53.50;;;;;;6187075;23;20205;-82
2024/01/04 01:47:50;;;;;;;1.55;0.93;;;16.50;53.50;;;;;;6186637;23;20135;-82
2024/01/04 01:50:17;;;;;;;0.73;0.57;;;16.50;53.40;;;;;;6185889;23;20505;-82
2024/01/04 01:52:43;;;;;;;3.03;0.95;;;16.50;53.40;;;;;;6183624;23;20150;-82
2024/01/04 01:55:09;;;;;;;1.23;0.70;;;16.50;53.60;;;;;;6185800;23;20173;-81
2024/01/04 01:57:35;;;;;;;2.15;0.70;;;16.50;53.60;;;;;;6182640;23;20131;-81
2024/01/04 02:00:02;;;;;;;3.42;1.05;;;16.40;53.80;;;;;;6184050;23;20190;-80
2024/01/04 02:02:28;;;;;;;2.33;1.30;;;16.40;53.80;;;;;;6183345;23;20185;-82
2024/01/04 02:04:54;;;;;;;1.35;0.70;;;16.40;53.80;;;;;;6185246;23;20146;-81
2024/01/04 02:07:20;;;;;;;1.42;0.77;;;16.40;53.80;;;;;;6182973;23;20131;-83
2024/01/04 02:09:46;;;;;;;1.05;0.70;;;16.40;53.80;;;;;;6184558;23;20467;-82
2024/01/04 02:14:38;;;;;;;1.27;0.80;;;16.40;53.60;;;;;;6213592;23;20252;-82
2024/01/04 02:17:04;;;;;;;2.13;0.80;;;16.40;53.70;;;;;;6215312;23;20142;-82
2024/01/04 02:19:30;;;;;;;1.48;0.80;;;16.40;53.60;;;;;;6189705;23;20470;-81
2024/01/04 02:21:55;;;;;;;1.90;0.95;;;16.40;53.60;;;;;;6164322;23;20162;-81
2024/01/04 02:24:21;;;;;;;1.50;0.82;;;16.40;53.60;;;;;;6165306;23;20559;-81
2024/01/04 02:26:47;;;;;;;1.15;0.70;;;16.40;53.70;;;;;;6140414;23;20157;-82
2024/01/04 02:29:13;;;;;;;1.35;0.80;;;16.40;53.50;;;;;;6189532;23;20154;-82
2024/01/04 02:31:39;;;;;;;1.40;0.65;;;16.40;53.70;;;;;;6216707;23;20139;-82
2024/01/04 02:34:05;;;;;;;0.95;0.63;;;16.40;53.60;;;;;;6215534;23;20210;-81
2024/01/04 02:36:32;;;;;;;1.00;0.65;;;16.40;53.70;;;;;;6216484;23;20134;-81
2024/01/04 02:38:58;;;;;;;1.33;0.70;;;16.40;53.60;;;;;;6216414;23;20135;-81
2024/01/04 02:41:25;;;;;;;2.38;1.00;;;16.40;53.70;;;;;;6189287;23;20138;-82
2024/01/04 02:43:50;;;;;;;1.73;0.90;;;16.30;53.60;;;;;;6189197;23;20166;-81
2024/01/04 02:46:16;;;;;;;1.55;0.77;;;16.40;53.80;;;;;;6215265;23;20206;-82
2024/01/04 02:48:42;;;;;;;2.00;0.93;;;16.40;53.70;;;;;;6216190;23;20178;-81
2024/01/04 02:51:08;;;;;;;1.80;0.80;;;16.40;53.70;;;;;;6215388;23;20127;-81
2024/01/04 02:53:37;;;;;;;1.27;0.90;;;16.40;53.50;;;;;;6216394;23;20199;-82
2024/01/04 02:56:04;;;;;;;2.08;1.00;;;16.40;53.70;;;;;;6114823;23;20550;-81
2024/01/04 02:58:32;;;;;;;2.33;0.90;;;16.40;53.50;;;;;;6189603;23;20150;-80
2024/01/04 03:01:20;;;;;;;2.03;0.90;;;16.40;53.50;;;;;;6139365;23;20182;-81
2024/01/04 03:03:51;;;;;;;1.45;0.70;;;16.40;53.50;;;;;;6123066;23;20200;-82
2024/01/04 03:06:29;;;;;;;1.83;0.75;;;16.40;53.70;;;;;;6049475;23;20212;-80
2024/01/04 03:08:58;;;;;;;0.80;0.60;;;16.40;53.70;;;;;;6075455;23;20194;-82
2024/01/04 03:11:26;;;;;;;2.17;0.95;;;16.40;53.70;;;;;;6074786;23;20156;-81
2024/01/04 03:13:51;;;;;;;1.48;0.88;;;16.40;53.70;;;;;;6109769;23;20677;-81
2024/01/04 03:16:22;;;;;;;1.42;0.77;;;16.40;53.70;;;;;;6184161;23;20185;-81
2024/01/04 03:18:49;;;;;;;1.25;0.73;;;16.40;53.60;;;;;;6132183;23;20181;-81
2024/01/04 03:21:17;;;;;;;1.23;0.80;;;16.40;53.60;;;;;;6131735;23;20151;-81
2024/01/04 03:23:44;;;;;;;1.63;0.90;;;16.30;53.60;;;;;;6133029;23;20186;-80
2024/01/04 03:26:10;;;;;;;0.57;0.57;;;16.40;53.60;;;;;;6107849;23;20590;-82
2024/01/04 03:28:37;;;;;;;1.13;0.73;;;16.40;53.60;;;;;;6158455;23;20346;-81
2024/01/04 03:31:03;;;;;;;1.50;0.70;;;16.40;53.70;;;;;;6158057;23;20135;-81
2024/01/04 03:33:30;;;;;;;1.33;0.95;;;16.40;53.50;;;;;;6159254;23;20554;-80
2024/01/04 03:35:56;;;;;;;1.10;0.80;;;16.40;53.40;;;;;;6134082;23;20147;-80
2024/01/04 03:38:21;;;;;;;0.65;0.50;;;16.30;53.70;;;;;;6185891;23;20193;-81
2024/01/04 03:40:47;;;;;;;0.70;0.68;;;16.30;53.70;;;;;;6134946;23;20131;-81
2024/01/04 03:43:13;;;;;;;1.42;0.80;;;16.30;53.60;;;;;;6159645;23;20170;-80
2024/01/04 03:45:39;;;;;;;1.55;0.80;;;16.40;53.50;;;;;;6185367;23;20135;-81
2024/01/04 03:48:06;;;;;;;2.42;0.88;;;16.30;53.70;;;;;;6159175;23;20131;-80
2024/01/04 03:50:31;;;;;;;2.63;0.88;;;16.30;53.60;;;;;;6185488;23;20214;-81
2024/01/04 03:52:57;;;;;;;0.95;0.70;;;16.30;53.60;;;;;;6185942;23;20166;-82
2024/01/04 03:55:23;;;;;;;3.08;1.02;;;16.30;53.60;;;;;;6185199;23;20180;-82
2024/01/04 03:57:53;;;;;;;1.23;0.70;;;16.20;53.50;;;;;;6158991;23;20201;-82
2024/01/04 04:00:19;;;;;;;1.70;0.63;;;16.30;53.50;;;;;;6133358;23;20155;-82
2024/01/04 04:02:45;;;;;;;1.90;0.80;;;16.30;53.60;;;;;;6159358;23;20183;-83
2024/01/04 04:05:10;;;;;;;0.90;0.70;;;16.30;53.60;;;;;;6185466;23;20579;-82
2024/01/04 04:07:37;;;;;;;1.73;0.80;;;16.30;53.80;;;;;;6185231;23;20210;-82
2024/01/04 04:10:04;;;;;;;1.35;0.70;;;16.30;53.70;;;;;;6185726;23;20138;-82
2024/01/04 04:12:30;;;;;;;1.33;0.85;;;16.30;54.20;;;;;;6185595;23;20206;-83
2024/01/04 04:17:26;;;;;;;1.27;0.75;;;16.30;53.40;;;;;;6184648;23;20198;-80
2024/01/04 04:19:52;;;;;;;1.17;0.88;;;16.30;53.50;;;;;;6184478;23;20139;-81
2024/01/04 04:22:18;;;;;;;2.00;0.70;;;16.40;53.60;;;;;;6184392;23;20158;-82
2024/01/04 04:24:43;;;;;;;1.98;0.80;;;16.30;53.70;;;;;;6157994;23;20474;-81
2024/01/04 04:27:10;;;;;;;1.95;1.10;;;16.30;53.50;;;;;;6184024;23;20181;-80
2024/01/04 04:29:39;;;;;;;1.65;0.90;;;16.30;53.50;;;;;;6184467;23;20139;-80
2024/01/04 04:32:08;;;;;;;1.90;0.95;;;16.30;53.50;;;;;;6183647;23;20131;-83
2024/01/04 04:34:34;;;;;;;1.70;0.85;;;16.30;53.50;;;;;;6158996;23;20189;-81
2024/01/04 04:39:26;;;;;;;0.70;0.50;;;16.30;53.50;;;;;;6182940;23;20198;-81
2024/01/04 04:42:01;;;;;;;1.13;0.80;;;16.30;53.70;;;;;;6184544;23;20142;-82
2024/01/04 04:47:05;;;;;;;1.25;0.90;;;16.20;53.50;;;;;;6183264;23;20202;-81
2024/01/04 04:49:30;;;;;;;1.15;0.73;;;16.30;53.50;;;;;;6132272;23;20196;-81
2024/01/04 04:52:02;;;;;;;1.00;0.80;;;16.30;53.50;;;;;;6157426;23;20163;-81
2024/01/04 04:54:34;;;;;;;2.10;0.90;;;16.30;53.50;;;;;;6131588;23;20296;-82
2024/01/04 04:57:06;;;;;;;2.03;0.80;;;16.30;53.60;;;;;;6131567;23;20166;-81
2024/01/04 04:59:37;;;;;;;1.23;0.75;;;16.30;53.50;;;;;;6131662;23;20587;-81
2024/01/04 05:02:10;;;;;;;1.73;0.80;;;16.30;53.60;;;;;;6131517;23;20162;-80
2024/01/04 05:04:43;;;;;;;1.40;0.70;;;16.30;53.70;;;;;;6132047;23;20537;-81
2024/01/04 05:07:14;;;;;;;1.80;0.70;;;16.30;53.60;;;;;;6131840;23;20154;-82
2024/01/04 05:09:45;;;;;;;1.25;0.75;;;16.30;53.50;;;;;;6131553;23;20186;-81
2024/01/04 05:12:11;;;;;;;1.58;0.65;;;16.30;53.60;;;;;;6130855;23;20523;-82
2024/01/04 05:14:41;;;;;;;1.80;0.85;;;16.30;53.50;;;;;;6184511;23;20131;-82
2024/01/04 05:17:11;;;;;;;1.20;0.80;;;16.30;53.60;;;;;;6108588;23;20154;-80
2024/01/04 05:19:43;;;;;;;1.95;0.93;;;16.30;53.50;;;;;;6132790;23;20150;-81
2024/01/04 05:22:09;;;;;;;2.08;0.90;;;16.30;53.50;;;;;;6134633;23;20230;-82
2024/01/04 05:24:38;;;;;;;0.60;0.60;;;16.30;53.50;;;;;;6158884;23;20170;-81
2024/01/04 05:27:06;;;;;;;1.95;1.00;;;16.30;53.50;;;;;;6133096;23;20150;-81
2024/01/04 05:29:35;;;;;;;1.52;0.80;;;16.30;53.50;;;;;;6133024;23;20155;-81
2024/01/04 05:32:03;;;;;;;2.78;0.80;;;16.30;53.50;;;;;;6109365;23;20191;-81
2024/01/04 05:34:32;;;;;;;2.45;1.00;;;16.30;53.30;;;;;;6133045;23;20158;-82
2024/01/04 05:37:01;;;;;;;0.95;0.65;;;16.20;53.50;;;;;;6170853;23;20210;-82
2024/01/04 05:39:29;;;;;;;0.95;0.70;;;16.30;53.30;;;;;;6132628;23;20463;-81
2024/01/04 05:41:57;;;;;;;0.90;0.70;;;16.30;53.40;;;;;;6133048;23;20161;-80
2024/01/04 05:44:24;;;;;;;1.58;0.88;;;16.30;53.40;;;;;;6108385;23;20513;-82
2024/01/04 05:46:50;;;;;;;1.10;0.90;;;16.20;54.10;;;;;;6108117;23;20537;-81
2024/01/04 05:49:18;;;;;;;1.70;0.90;;;16.30;53.50;;;;;;6158840;23;20131;-81
2024/01/04 05:51:44;;;;;;;1.45;0.70;;;16.20;53.50;;;;;;6108237;23;20161;-81
2024/01/04 05:54:11;;;;;;;1.27;0.88;;;16.30;53.40;;;;;;6158054;23;20582;-82
2024/01/04 05:56:38;;;;;;;0.90;0.73;;;16.30;53.50;;;;;;6108023;23;20178;-81
2024/01/04 05:59:04;;;;;;;2.55;1.05;;;16.20;53.30;;;;;;6108748;23;20154;-82
2024/01/04 06:01:30;;;;;;;1.17;0.82;;;16.30;53.50;;;;;;6133435;23;20214;-81
2024/01/04 06:03:58;;;;;;;1.58;0.70;;;16.30;53.40;;;;;;6134080;23;20205;-82
2024/01/04 06:06:23;;;;;;;1.13;0.90;;;16.30;53.60;;;;;;6184781;23;20132;-81
2024/01/04 06:08:49;;;;;;;1.63;0.98;;;16.20;53.50;;;;;;6184287;23;20165;-81
2024/01/04 06:11:18;;;;;;;1.58;0.85;;;16.30;53.50;;;;;;6158120;23;20593;-81
2024/01/04 06:13:44;;;;;;;1.95;0.93;;;16.20;53.50;;;;;;6158409;23;20559;-80
2024/01/04 06:16:10;;;;;;;2.22;0.93;;;16.20;53.50;;;;;;6158801;23;20154;-81
2024/01/04 06:18:36;;;;;;;1.27;0.90;;;16.20;53.60;;;;;;6158373;23;20147;-81
2024/01/04 06:21:02;;;;;;;1.80;0.88;;;16.20;53.60;;;;;;6133994;23;20152;-81
2024/01/04 06:23:28;;;;;;;1.85;0.80;;;16.20;53.50;;;;;;6184841;23;20159;-82
2024/01/04 06:25:55;;;;;;;1.27;0.70;;;16.20;53.50;;;;;;6158074;23;20135;-81
2024/01/04 06:28:22;;;;;;;1.60;0.65;;;16.20;53.50;;;;;;6158683;23;20151;-81
2024/01/04 06:33:14;;;;;;;1.05;0.90;;;16.20;53.40;;;;;;6184618;23;20203;-81
2024/01/04 06:35:40;;;;;;;1.45;0.70;;;16.20;53.40;;;;;;6184361;23;20170;-80
2024/01/04 06:38:09;;;;;;;2.03;0.88;;;16.20;53.40;;;;;;6158871;23;20213;-81
2024/01/04 06:40:37;;;;;;;2.00;0.90;;;16.20;53.40;;;;;;6184621;23;20135;-82
2024/01/04 06:43:03;;;;;;;1.42;0.88;;;16.20;53.30;;;;;;6184475;23;20177;-83
2024/01/04 06:45:29;;;;;;;0.93;0.80;;;16.20;53.40;;;;;;6184539;23;20135;-82
2024/01/04 06:47:55;;;;;;;1.38;0.98;;;16.20;53.50;;;;;;6185096;23;20142;-82
2024/01/04 06:50:21;;;;;;;1.63;0.88;;;16.20;53.40;;;;;;6158377;23;20139;-81
2024/01/04 06:52:48;;;;;;;1.70;0.90;;;16.20;53.40;;;;;;6158890;23;20146;-81
2024/01/04 06:55:14;;;;;;;1.10;0.80;;;16.20;53.30;;;;;;6157720;23;20155;-82
2024/01/04 06:57:40;;;;;;;1.75;0.90;;;16.20;53.30;;;;;;6184580;23;20135;-82
2024/01/04 07:00:08;;;;;;;1.40;0.80;;;16.10;53.30;;;;;;6158276;23;20157;-80
2024/01/04 07:02:35;;;;;;;1.05;0.82;;;16.20;53.20;;;;;;6133037;23;20178;-81
2024/01/04 07:05:05;;;;;;;1.00;0.80;;;16.30;53.50;;;;;;6184032;23;20135;-82
2024/01/04 07:07:32;;;;;;;1.85;1.10;;;16.20;53.50;;;;;;6184899;23;20142;-80
2024/01/04 07:09:58;;;;;;;1.25;0.73;;;16.20;53.50;;;;;;6158676;23;20143;-81
2024/01/04 07:12:25;;;;;;;2.65;1.15;;;16.10;53.50;;;;;;6182915;23;20248;-80
2024/01/04 07:14:51;;;;;;;1.25;0.80;;;16.20;53.20;;;;;;6108697;23;20143;-80
2024/01/04 07:17:22;;;;;;;1.88;0.70;;;16.20;52.70;;;;;;6132524;23;20593;-81
2024/01/04 07:19:51;;;;;;;0.60;0.60;;;16.20;52.80;;;;;;6108269;23;20178;-81
2024/01/04 07:22:20;;;;;;;1.52;0.80;;;16.40;52.10;;;;;;6132127;23;20151;-81
2024/01/04 07:24:50;;;;;;;1.10;0.82;;;16.40;51.90;;;;;;6160805;23;20246;-81
2024/01/04 07:27:20;;;;;;;1.10;0.75;;;16.40;52.30;;;;;;6132196;23;20601;-80
2024/01/04 07:29:49;;;;;;;3.22;0.93;;;16.40;52.30;;;;;;6107749;23;20150;-80
2024/01/04 07:32:18;;;;;;;1.35;0.90;;;16.40;52.60;;;;;;6107726;23;20217;-81
2024/01/04 07:34:44;;;;;;;1.58;0.90;;;16.40;52.20;;;;;;6134004;23;20201;-80
2024/01/04 07:37:13;;;;;;;1.08;0.77;;;16.40;52.30;;;;;;6158268;23;20138;-80
2024/01/04 07:39:40;;;;;;;1.55;0.98;;;16.40;52.20;;;;;;6131725;23;20242;-80
2024/01/04 07:42:06;;;;;;;1.30;0.80;;;16.50;52.00;;;;;;6157467;23;20150;-81
2024/01/04 07:44:34;;;;;;;1.23;0.90;;;16.50;51.90;;;;;;6157388;23;20131;-81
2024/01/04 07:49:27;;;;;;;0.88;0.82;;;16.50;51.70;;;;;;6183797;23;20205;-80
2024/01/04 07:51:54;;;;;;;0.93;0.77;;;16.40;52.20;;;;;;6107338;23;20162;-80
2024/01/04 07:54:20;;;;;;;1.52;1.08;;;16.50;51.80;;;;;;6184668;23;20181;-81
2024/01/04 07:56:45;;;;;;;1.27;0.85;;;16.40;52.30;;;;;;6184656;23;20459;-82
2024/01/04 07:59:11;;;;;;;1.73;0.93;;;16.40;52.10;;;;;;6157141;23;20606;-80
2024/01/04 08:01:37;;;;;;;1.70;0.85;;;16.50;51.90;;;;;;6157533;23;20579;-80
2024/01/04 08:04:09;;;;;;;0.70;0.70;;;16.50;52.10;;;;;;6184343;23;20686;-80
2024/01/04 08:06:35;;;;;;;1.40;0.80;;;16.50;52.00;;;;;;6109311;23;20166;-80
2024/01/04 08:09:03;;;;;;;0.95;0.80;;;16.50;51.50;;;;;;6185748;23;20135;-80
2024/01/04 08:11:29;;;;;;;1.27;0.80;;;16.50;51.70;;;;;;6186261;23;20154;-80
2024/01/04 08:13:55;;;;;;;0.93;0.70;;;16.50;52.40;;;;;;6185889;23;20513;-81
2024/01/04 08:16:21;;;;;;;1.30;0.90;;;16.50;52.00;;;;;;6185344;23;20139;-82
2024/01/04 08:18:47;;;;;;;1.50;0.90;;;16.40;52.40;;;;;;6159996;23;20131;-80
2024/01/04 08:21:13;;;;;;;1.30;0.75;;;16.40;52.80;;;;;;6187224;23;20222;-80
2024/01/04 08:23:40;;;;;;;2.38;0.68;;;16.50;51.90;;;;;;6186380;23;20537;-81
2024/01/04 08:26:08;;;;;;;0.98;0.70;;;16.50;52.00;;;;;;6135022;23;20566;-81
2024/01/04 08:28:33;;;;;;;2.45;1.13;;;16.50;51.70;;;;;;6135353;23;20143;-80
2024/01/04 08:30:59;;;;;;;1.60;0.73;;;16.50;52.00;;;;;;6187131;23;20142;-81
2024/01/04 08:33:25;;;;;;;0.88;0.73;;;16.50;52.30;;;;;;6136441;23;20645;-82
2024/01/04 08:35:51;;;;;;;1.42;1.00;;;16.40;52.20;;;;;;6112323;23;20147;-81
2024/01/04 08:38:16;;;;;;;1.60;1.00;;;16.50;51.60;;;;;;6136228;23;20471;-82
2024/01/04 08:40:44;;;;;;;3.78;0.90;;;16.50;52.00;;;;;;6111819;23;20170;-82
2024/01/04 08:43:10;;;;;;;1.98;0.80;;;16.50;50.90;;;;;;6159873;23;20190;-80
2024/01/04 08:45:38;;;;;;;1.17;0.90;;;16.50;51.90;;;;;;6135341;23;20537;-80
2024/01/04 08:48:04;;;;;;;3.25;1.10;;;16.50;52.10;;;;;;6109650;23;20195;-80
2024/01/04 08:50:29;;;;;;;1.65;0.88;;;16.50;52.40;;;;;;6160919;23;20162;-81
2024/01/04 08:52:55;;;;;;;1.58;0.73;;;16.50;52.20;;;;;;6188344;23;20154;-80
2024/01/04 08:55:21;;;;;;;5.65;1.55;;;16.50;51.00;;;;;;6188272;23;20127;-81
2024/01/04 08:57:48;;;;;;;8.52;1.70;;;16.50;51.90;;;;;;6137483;23;20132;-80
2024/01/04 09:00:14;;;;;;;10.45;1.45;;;16.50;51.80;;;;;;6138847;23;20138;-81
2024/01/04 09:02:41;;;;;;;9.35;1.30;;;16.60;52.10;;;;;;6162050;23;20163;-81
2024/01/04 09:05:07;;;;;;;5.32;1.20;;;16.50;51.40;;;;;;6163451;23;20135;-81
2024/01/04 09:07:33;;;;;;;7.75;1.20;;;16.60;51.10;;;;;;6189971;23;20212;-82
2024/01/04 09:09:59;;;;;;;8.00;1.20;;;16.60;52.00;;;;;;6189538;23;20558;-81
2024/01/04 09:12:27;;;;;;;4.25;1.27;;;16.60;52.00;;;;;;6162363;23;20156;-81
2024/01/04 09:14:53;;;;;;;5.78;1.15;;;16.70;52.30;;;;;;6163109;23;20150;-80
2024/01/04 09:17:19;;;;;;;8.32;1.55;;;16.60;51.80;;;;;;6162177;23;20174;-80
2024/01/04 09:19:46;;;;;;;5.13;1.20;;;16.70;51.00;;;;;;6188290;23;20135;-81
2024/01/04 09:22:12;;;;;;;6.20;1.17;;;16.70;51.70;;;;;;6187945;23;20166;-80
2024/01/04 09:24:38;;;;;;;7.95;1.25;;;16.70;51.80;;;;;;6188149;23;20236;-80
2024/01/04 09:27:04;;;;;;;3.72;1.10;;;16.60;52.60;;;;;;6161893;23;20181;-81
2024/01/04 09:29:36;;;;;;;6.60;1.10;;;16.70;51.50;;;;;;6137598;23;20131;-81
2024/01/04 09:32:06;;;;;;;6.63;1.20;;;16.70;50.30;;;;;;6161835;23;20162;-83
2024/01/04 09:34:32;;;;;;;5.30;1.10;;;16.70;51.40;;;;;;6087426;23;20609;-81
2024/01/04 09:37:00;;;;;;;2.88;1.00;;;16.80;51.30;;;;;;6161733;23;20131;-81
2024/01/04 09:39:27;;;;;;;4.80;1.00;;;16.70;51.20;;;;;;6161202;23;20131;-80
2024/01/04 09:41:52;;;;;;;5.95;1.20;;;16.70;51.60;;;;;;6187953;23;20135;-81
2024/01/04 09:44:18;;;;;;;2.63;0.82;;;16.80;51.60;;;;;;6187526;23;20218;-80
2024/01/04 09:46:44;;;;;;;3.60;1.00;;;16.80;51.90;;;;;;6160092;23;20181;-80
2024/01/04 09:49:11;;;;;;;4.65;1.10;;;16.70;51.60;;;;;;6160973;23;20212;-80
2024/01/04 09:51:38;;;;;;;2.33;0.98;;;16.80;50.70;;;;;;6159428;23;20174;-81
2024/01/04 09:54:08;;;;;;;4.35;1.20;;;16.80;50.80;;;;;;6186647;23;20138;-81
2024/01/04 09:56:37;;;;;;;6.82;1.27;;;16.80;51.40;;;;;;6160421;23;20150;-79
2024/01/04 09:59:04;;;;;;;6.00;1.30;;;16.80;51.50;;;;;;6186704;23;20630;-81
2024/01/04 10:01:33;;;;;;;4.85;1.25;;;16.90;50.80;;;;;;6160441;23;20597;-80
2024/01/04 10:04:03;;;;;;;5.63;1.15;;;16.90;51.00;;;;;;6187048;23;20230;-80
2024/01/04 10:06:32;;;;;;;8.73;1.20;;;16.90;51.60;;;;;;6161517;23;20182;-80
2024/01/04 10:09:21;;;;;;;6.38;1.30;;;16.90;50.80;;;;;;6187009;23;20123;-80
2024/01/04 10:12:05;;;;;;;7.88;1.20;;;16.90;51.20;;;;;;6164300;23;20135;-82
2024/01/04 10:14:32;;;;;;;4.28;1.13;;;16.90;51.60;;;;;;6160459;23;20146;-81
2024/01/04 10:16:58;;;;;;;6.68;1.10;;;16.80;52.30;;;;;;6159836;23;20131;-81
2024/01/04 10:19:25;;;;;;;5.40;0.98;;;16.80;51.90;;;;;;6158835;23;20127;-81
2024/01/04 10:21:51;;;;;;;6.15;1.30;;;16.90;51.80;;;;;;6184370;23;20142;-81
2024/01/04 10:24:21;;;;;;;4.72;1.02;;;16.80;52.00;;;;;;6159715;23;20179;-80
2024/01/04 10:26:57;;;;;;;5.07;1.10;;;16.80;51.00;;;;;;6185129;23;20131;-80
2024/01/04 10:29:23;;;;;;;3.45;1.20;;;16.90;51.90;;;;;;6134489;23;20138;-80
2024/01/04 10:32:05;;;;;;;5.43;1.02;;;16.90;51.90;;;;;;6159646;23;20143;-80
2024/01/04 10:34:33;;;;;;;4.50;1.00;;;16.90;51.20;;;;;;6159268;23;20154;-79
2024/01/04 10:37:09;;;;;;;5.43;1.15;;;17.00;51.10;;;;;;6163830;23;20186;-80
2024/01/04 10:39:36;;;;;;;6.03;1.20;;;16.90;51.60;;;;;;6164626;23;20130;-80
2024/01/04 10:42:07;;;;;;;2.45;0.90;;;17.00;51.50;;;;;;6189855;23;20224;-80
2024/01/04 10:44:36;;;;;;;7.43;2.00;;;16.80;51.90;;;;;;6136680;23;20197;-80
2024/01/04 10:47:05;;;;;;;2.85;1.08;;;16.90;51.80;;;;;;6111420;23;20229;-80
2024/01/04 10:49:33;;;;;;;5.55;0.90;;;16.90;51.50;;;;;;6107368;23;20167;-79
2024/01/04 10:52:01;;;;;;;2.42;1.02;;;17.00;51.50;;;;;;6106940;23;20185;-79
2024/01/04 10:54:38;;;;;;;3.08;0.82;;;17.00;51.30;;;;;;6157114;23;20226;-79
2024/01/04 10:57:08;;;;;;;4.95;1.10;;;17.00;51.90;;;;;;6105686;23;20163;-80
2024/01/04 10:59:33;;;;;;;4.03;1.25;;;16.90;51.20;;;;;;6081377;23;20148;-79
2024/01/04 11:02:00;;;;;;;3.10;1.20;;;17.00;50.60;;;;;;6156632;23;20513;-80
2024/01/04 11:04:26;;;;;;;2.22;1.00;;;17.00;49.80;;;;;;6130229;23;20226;-79
2024/01/04 11:06:52;;;;;;;2.05;0.80;;;17.10;50.10;;;;;;6105572;23;20143;-81
2024/01/04 11:09:23;;;;;;;2.28;1.13;;;17.10;48.80;;;;;;6106380;23;20214;-81
2024/01/04 11:11:53;;;;;;;8.30;1.10;;;17.10;50.90;;;;;;6159330;23;20210;-81
2024/01/04 11:14:21;;;;;;;3.78;0.80;;;17.10;51.00;;;;;;6161490;23;20139;-81
2024/01/04 11:17:11;;;;;;;4.80;1.00;;;17.10;50.90;;;;;;6186115;23;20144;-79
2024/01/04 11:20:04;;;;;;;1.90;1.00;;;17.10;50.20;;;;;;6164426;23;20142;-79
2024/01/04 11:22:52;;;;;;;1.55;0.95;;;17.10;49.20;;;;;;6092847;23;20151;-79
2024/01/04 11:25:53;;;;;;;2.42;0.93;;;17.10;50.40;;;;;;6153981;23;20202;-78
2024/01/04 11:28:20;;;;;;;3.05;0.93;;;17.10;50.70;;;;;;6155369;23;20146;-79
2024/01/04 11:30:51;;;;;;;5.28;1.10;;;17.10;50.20;;;;;;6130546;23;20163;-78
2024/01/04 11:33:19;;;;;;;4.10;1.00;;;17.10;50.80;;;;;;6130243;23;20440;-79
2024/01/04 11:35:48;;;;;;;4.60;1.20;;;17.10;50.20;;;;;;6155791;23;20551;-79
2024/01/04 11:38:23;;;;;;;3.33;1.00;;;17.10;50.50;;;;;;6155733;23;20214;-78
2024/01/04 11:40:50;;;;;;;3.58;1.15;;;17.10;49.70;;;;;;6156209;23;20145;-79
2024/01/04 11:43:16;;;;;;;2.95;1.25;;;17.10;50.60;;;;;;6155720;23;20166;-80
2024/01/04 11:45:44;;;;;;;4.22;1.35;;;17.10;51.00;;;;;;6156007;23;20157;-80
2024/01/04 11:48:11;;;;;;;5.40;0.80;;;17.10;51.00;;;;;;6155664;23;20139;-79
2024/01/04 11:50:47;;;;;;;3.15;1.20;;;17.10;50.60;;;;;;6154495;23;20132;-79
2024/01/04 11:53:14;;;;;;;3.45;1.00;;;17.20;50.30;;;;;;6184895;23;20656;-79
2024/01/04 11:55:41;;;;;;;5.18;1.10;;;17.10;51.00;;;;;;6160772;23;20237;-80
2024/01/04 11:58:11;;;;;;;5.05;1.10;;;17.10;51.20;;;;;;6159996;23;20135;-80
2024/01/04 12:00:41;;;;;;;6.68;1.15;;;17.00;51.50;;;;;;6183826;23;20142;-79
2024/01/04 12:03:15;;;;;;;3.95;1.20;;;17.00;51.60;;;;;;6157650;23;20171;-79
2024/01/04 12:05:43;;;;;;;5.75;1.25;;;17.10;50.80;;;;;;6158318;23;20134;-79
2024/01/04 12:08:09;;;;;;;5.38;0.95;;;17.10;50.80;;;;;;6184609;23;20166;-80
2024/01/04 12:10:35;;;;;;;9.30;1.13;;;17.10;50.60;;;;;;6183655;23;20139;-80
2024/01/04 12:13:02;;;;;;;11.82;1.25;;;17.10;51.40;;;;;;6133671;23;20178;-79
2024/01/04 12:15:27;;;;;;;4.03;1.23;;;17.00;51.30;;;;;;6185277;23;20157;-80
2024/01/04 12:17:53;;;;;;;4.32;1.02;;;17.10;51.00;;;;;;6185764;23;20558;-79
2024/01/04 12:20:19;;;;;;;7.32;1.23;;;17.10;50.60;;;;;;6185650;23;20305;-79
2024/01/04 12:22:45;;;;;;;7.05;1.13;;;17.10;51.60;;;;;;6185913;23;20617;-79
2024/01/04 12:25:10;;;;;;;6.47;1.02;;;17.10;51.10;;;;;;6187846;23;20578;-80
2024/01/04 12:27:37;;;;;;;6.65;1.02;;;17.10;51.90;;;;;;6187760;23;20141;-80
2024/01/04 12:30:06;;;;;;;2.75;0.95;;;17.00;51.90;;;;;;6161561;23;20135;-79
2024/01/04 12:32:33;;;;;;;3.63;0.93;;;17.00;51.00;;;;;;6187746;23;20135;-80
2024/01/04 12:35:02;;;;;;;1.52;1.00;;;17.00;51.20;;;;;;6138100;23;20566;-82
2024/01/04 12:37:29;;;;;;;2.70;0.93;;;17.00;51.00;;;;;;6188743;23;20233;-80
2024/01/04 12:40:12;;;;;;;4.43;1.00;;;17.00;51.20;;;;;;6139132;23;20142;-81
2024/01/04 12:42:38;;;;;;;2.30;0.80;;;17.00;50.70;;;;;;6164949;23;20257;-82
2024/01/04 12:45:11;;;;;;;2.00;0.98;;;17.00;51.20;;;;;;6115527;23;20150;-82
2024/01/04 12:47:37;;;;;;;1.65;0.85;;;17.00;50.90;;;;;;6146028;23;20586;-82
2024/01/04 12:50:09;;;;;;;2.63;0.80;;;17.00;51.50;;;;;;6144641;23;20169;-83
2024/01/04 12:52:42;;;;;;;1.55;0.80;;;17.00;50.70;;;;;;6149757;23;20237;-83
2024/01/04 12:55:26;;;;;;;3.45;0.82;;;17.10;50.70;;;;;;6150559;23;20153;-88
2024/01/04 12:57:55;;;;;;;4.72;1.05;;;17.20;50.00;;;;;;6131983;23;20169;-87
2024/01/04 13:00:32;;;;;;;3.25;0.85;;;17.10;51.00;;;;;;6130017;23;20130;-85
2024/01/04 13:03:00;;;;;;;3.60;0.95;;;17.10;51.10;;;;;;6105807;23;20182;-87
2024/01/04 13:05:31;;;;;;;2.88;0.90;;;17.10;50.60;;;;;;6127270;23;20206;-86
2024/01/04 13:07:59;;;;;;;2.13;0.80;;;17.10;51.30;;;;;;6100767;23;20154;-86